createdAt,value
2022-10-25T00:01:36.232Z,8.52
2022-10-25T00:04:03.100Z,8.07
2022-10-25T00:06:29.838Z,8.90
2022-10-25T00:08:56.485Z,8.07
2022-10-25T00:11:24.817Z,7.72
2022-10-25T00:13:52.752Z,8.02
2022-10-25T00:16:22.883Z,7.22
2022-10-25T00:18:49.487Z,8.05
2022-10-25T00:21:16.086Z,7.50
2022-10-25T00:23:42.669Z,5.90
2022-10-25T00:26:09.740Z,7.30
2022-10-25T00:28:36.465Z,7.22
2022-10-25T00:31:04.397Z,6.80
2022-10-25T00:33:34.685Z,7.85
2022-10-25T00:36:18.415Z,6.80
2022-10-25T00:38:46.398Z,6.80
2022-10-25T00:41:14.519Z,8.77
2022-10-25T00:43:43.125Z,8.20
2022-10-25T00:46:19.710Z,8.70
2022-10-25T00:49:02.496Z,9.20
2022-10-25T00:51:33.243Z,10.60
2022-10-25T00:53:59.897Z,8.07
2022-10-25T00:56:28.259Z,7.20
2022-10-25T00:58:58.368Z,8.23
2022-10-25T01:01:25.130Z,9.48
2022-10-25T01:03:52.697Z,8.65
2022-10-25T01:06:25.399Z,6.43
2022-10-25T01:09:12.112Z,9.05
2022-10-25T01:11:38.892Z,7.35
2022-10-25T01:14:06.298Z,5.47
2022-10-25T01:16:57.254Z,7.47
2022-10-25T01:20:01.226Z,7.32
2022-10-25T01:22:48.136Z,6.15
2022-10-25T01:25:55.671Z,5.15
2022-10-25T01:28:52.363Z,7.30
2022-10-25T01:31:39.684Z,5.15
2022-10-25T01:34:25.891Z,8.25
2022-10-25T01:37:07.573Z,6.78
2022-10-25T01:39:36.786Z,12.60
2022-10-25T01:42:09.361Z,9.95
2022-10-25T01:44:56.126Z,10.68
2022-10-25T01:47:41.480Z,5.68
2022-10-25T01:52:46.114Z,5.60
2022-10-25T01:55:12.935Z,6.40
2022-10-25T01:58:08.047Z,6.18
2022-10-25T02:01:10.423Z,5.57
2022-10-25T02:03:40.162Z,6.07
2022-10-25T02:06:27.016Z,5.72
2022-10-25T02:09:03.538Z,5.40
2022-10-25T02:11:31.287Z,5.35
2022-10-25T02:14:25.841Z,5.95
2022-10-25T02:17:09.293Z,5.28
2022-10-25T02:19:47.508Z,5.38
2022-10-25T02:22:14.082Z,6.20
2022-10-25T02:24:41.633Z,5.68
2022-10-25T02:27:08.215Z,5.60
2022-10-25T02:29:34.972Z,5.68
2022-10-25T02:32:02.663Z,5.65
2022-10-25T02:34:29.275Z,5.13
2022-10-25T02:36:55.926Z,5.25
2022-10-25T02:39:26.401Z,5.20
2022-10-25T02:41:55.647Z,5.25
2022-10-25T02:44:22.273Z,4.90
2022-10-25T02:46:48.823Z,4.75
2022-10-25T02:49:15.426Z,4.97
2022-10-25T02:51:42.055Z,4.50
2022-10-25T02:54:08.684Z,4.22
2022-10-25T02:56:36.357Z,4.28
2022-10-25T02:59:03.080Z,7.75
2022-10-25T03:01:29.912Z,5.40
2022-10-25T03:03:56.566Z,4.10
2022-10-25T03:06:23.150Z,4.70
2022-10-25T03:08:49.792Z,4.55
2022-10-25T03:11:16.632Z,4.97
2022-10-25T03:13:43.454Z,4.75
2022-10-25T03:16:10.209Z,4.50
2022-10-25T03:18:37.032Z,4.65
2022-10-25T03:21:03.895Z,6.10
2022-10-25T03:23:30.683Z,6.82
2022-10-25T03:25:58.132Z,6.30
2022-10-25T03:28:24.950Z,6.72
2022-10-25T03:30:51.525Z,6.22
2022-10-25T03:33:18.117Z,7.45
2022-10-25T03:35:44.799Z,7.30
2022-10-25T03:38:11.405Z,6.55
2022-10-25T03:40:38.001Z,6.95
2022-10-25T03:43:04.589Z,6.68
2022-10-25T03:45:31.200Z,6.57
2022-10-25T03:47:57.935Z,5.28
2022-10-25T03:50:24.508Z,5.90
2022-10-25T03:52:51.112Z,5.50
2022-10-25T03:55:17.785Z,6.35
2022-10-25T03:57:44.868Z,5.93
2022-10-25T04:00:12.313Z,5.68
2022-10-25T04:02:39.030Z,5.10
2022-10-25T04:05:05.913Z,5.38
2022-10-25T04:07:32.460Z,5.07
2022-10-25T04:09:59.031Z,5.57
2022-10-25T04:12:25.644Z,6.18
2022-10-25T04:14:52.209Z,5.03
2022-10-25T04:17:18.980Z,6.55
2022-10-25T04:19:45.718Z,6.80
2022-10-25T04:22:12.524Z,5.70
2022-10-25T04:24:39.308Z,5.55
2022-10-25T04:27:05.876Z,6.07
2022-10-25T04:29:32.440Z,6.93
2022-10-25T04:31:59.151Z,7.68
2022-10-25T04:34:25.892Z,10.38
2022-10-25T04:36:52.471Z,7.18
2022-10-25T04:39:19.160Z,7.32
2022-10-25T04:41:45.886Z,7.18
2022-10-25T04:44:12.508Z,8.32
2022-10-25T04:46:39.066Z,6.57
2022-10-25T04:49:05.865Z,7.22
2022-10-25T04:51:32.574Z,7.35
2022-10-25T04:53:59.205Z,8.13
2022-10-25T04:56:25.939Z,8.90
2022-10-25T04:58:52.589Z,8.15
2022-10-25T05:01:19.524Z,8.02
2022-10-25T05:03:46.228Z,9.57
2022-10-25T05:06:17.561Z,7.95
2022-10-25T05:08:45.575Z,8.10
2022-10-25T05:11:12.825Z,7.93
2022-10-25T05:13:39.805Z,7.95
2022-10-25T05:16:07.050Z,8.43
2022-10-25T05:18:34.322Z,7.93
2022-10-25T05:21:04.251Z,8.68
2022-10-25T05:23:31.024Z,8.10
2022-10-25T05:26:02.397Z,8.48
2022-10-25T05:28:29.178Z,8.63
2022-10-25T05:30:55.848Z,7.82
2022-10-25T05:33:22.580Z,8.52
2022-10-25T05:35:49.144Z,7.90
2022-10-25T05:38:15.850Z,8.70
2022-10-25T05:40:42.497Z,8.15
2022-10-25T05:43:09.238Z,7.45
2022-10-25T05:45:35.915Z,8.35
2022-10-25T05:48:02.707Z,8.40
2022-10-25T05:50:29.310Z,9.13
2022-10-25T05:52:55.966Z,8.35
2022-10-25T05:55:22.530Z,8.68
2022-10-25T05:57:52.188Z,8.18
2022-10-25T06:00:18.785Z,8.23
2022-10-25T06:02:45.717Z,7.88
2022-10-25T06:05:12.706Z,8.38
2022-10-25T06:07:39.519Z,8.40
2022-10-25T06:10:10.396Z,7.45
2022-10-25T06:12:37.357Z,7.60
2022-10-25T06:15:04.209Z,7.20
2022-10-25T06:17:30.820Z,7.35
2022-10-25T06:19:57.574Z,8.40
2022-10-25T06:22:24.240Z,8.30
2022-10-25T06:24:50.806Z,8.32
2022-10-25T06:27:17.367Z,8.90
2022-10-25T06:29:44.008Z,9.82
2022-10-25T06:32:10.643Z,8.82
2022-10-25T06:34:37.271Z,8.18
2022-10-25T06:37:03.878Z,7.85
2022-10-25T06:39:30.500Z,6.90
2022-10-25T06:41:57.203Z,8.70
2022-10-25T06:44:23.825Z,7.70
2022-10-25T06:47:15.778Z,6.78
2022-10-25T06:49:37.335Z,7.25
2022-10-25T06:52:03.894Z,7.38
2022-10-25T06:54:30.469Z,6.85
2022-10-25T06:56:57.970Z,6.45
2022-10-25T06:59:24.774Z,6.82
2022-10-25T07:01:51.551Z,7.65
2022-10-25T07:04:18.256Z,7.35
2022-10-25T07:06:44.889Z,7.50
2022-10-25T07:09:12.550Z,8.30
2022-10-25T07:11:39.335Z,7.90
2022-10-25T07:14:06.020Z,6.70
2022-10-25T07:16:32.759Z,7.18
2022-10-25T07:19:00.072Z,8.00
2022-10-25T07:21:26.892Z,7.30
2022-10-25T07:23:53.525Z,7.75
2022-10-25T07:26:22.109Z,8.20
2022-10-25T07:28:49.792Z,7.97
2022-10-25T07:31:18.605Z,7.22
2022-10-25T07:33:45.158Z,6.53
2022-10-25T07:36:12.255Z,5.28
2022-10-25T07:38:39.044Z,4.78
2022-10-25T07:41:05.848Z,4.63
2022-10-25T07:43:32.415Z,4.30
2022-10-25T07:45:59.051Z,3.72
2022-10-25T07:48:25.754Z,2.88
2022-10-25T07:50:52.342Z,2.60
2022-10-25T07:53:19.111Z,2.55
2022-10-25T07:55:52.450Z,2.75
2022-10-25T07:58:19.148Z,2.90
2022-10-25T08:00:45.759Z,3.10
2022-10-25T08:03:13.264Z,2.40
2022-10-25T08:05:40.130Z,2.55
2022-10-25T08:08:06.760Z,3.10
2022-10-25T08:10:33.735Z,2.90
2022-10-25T08:13:00.292Z,3.33
2022-10-25T08:15:26.897Z,3.53
2022-10-25T08:18:00.235Z,3.58
2022-10-25T08:20:43.326Z,3.38
2022-10-25T08:23:13.640Z,4.22
2022-10-25T08:25:40.448Z,3.72
2022-10-25T08:28:07.168Z,3.60
2022-10-25T08:30:33.806Z,4.10
2022-10-25T08:33:00.478Z,3.78
2022-10-25T08:35:27.035Z,3.47
2022-10-25T08:37:53.577Z,3.65
2022-10-25T08:40:25.157Z,3.28
2022-10-25T08:43:19.468Z,3.47
2022-10-25T08:45:57.460Z,3.78
2022-10-25T08:48:33.189Z,3.53
2022-10-25T08:51:04.551Z,3.42
2022-10-25T08:53:40.642Z,3.10
2022-10-25T08:56:16.586Z,3.25
2022-10-25T08:58:58.259Z,3.42
2022-10-25T09:01:36.965Z,3.25
2022-10-25T09:04:03.872Z,3.38
2022-10-25T09:06:43.750Z,3.25
2022-10-25T09:09:25.363Z,2.85
2022-10-25T09:11:58.132Z,2.80
2022-10-25T09:14:47.577Z,3.30
2022-10-25T09:17:21.741Z,2.78
2022-10-25T09:20:04.391Z,2.40
2022-10-25T09:22:35.519Z,2.90
2022-10-25T09:25:57.611Z,3.15
2022-10-25T09:28:42.400Z,2.70
2022-10-25T09:31:11.246Z,2.22
2022-10-25T09:33:37.805Z,2.78
2022-10-25T09:36:04.547Z,2.90
2022-10-25T09:38:47.809Z,2.97
2022-10-25T09:41:24.415Z,2.72
2022-10-25T09:43:50.921Z,3.10
2022-10-25T09:46:21.003Z,3.17
2022-10-25T09:48:53.414Z,3.10
2022-10-25T09:51:34.120Z,2.92
2022-10-25T09:54:01.586Z,2.42
2022-10-25T09:56:32.529Z,3.03
2022-10-25T09:59:04.400Z,2.88
2022-10-25T10:01:31.217Z,2.88
2022-10-25T10:04:05.083Z,3.40
2022-10-25T10:06:36.630Z,3.40
2022-10-25T10:09:05.403Z,2.97
2022-10-25T10:11:32.444Z,2.38
2022-10-25T10:14:09.157Z,2.60
2022-10-25T10:16:41.772Z,2.88
2022-10-25T10:19:16.383Z,2.10
2022-10-25T10:21:52.706Z,2.22
2022-10-25T10:24:24.927Z,1.88
2022-10-25T10:27:12.167Z,1.83
2022-10-25T10:29:47.443Z,1.60
2022-10-25T10:32:26.170Z,1.92
2022-10-25T10:34:55.170Z,1.52
2022-10-25T10:37:23.021Z,1.88
2022-10-25T10:40:02.465Z,1.70
2022-10-25T10:42:38.052Z,1.80
2022-10-25T10:45:15.417Z,1.50
2022-10-25T10:47:45.948Z,1.60
2022-10-25T10:50:22.634Z,1.40
2022-10-25T10:53:09.304Z,1.55
2022-10-25T10:55:36.850Z,2.05
2022-10-25T10:58:14.675Z,1.50
2022-10-25T11:00:41.746Z,1.55
2022-10-25T11:03:31.415Z,1.63
2022-10-25T11:05:59.421Z,1.65
2022-10-25T11:08:26.120Z,1.70
2022-10-25T11:10:52.698Z,1.50
2022-10-25T11:13:19.957Z,1.80
2022-10-25T11:15:58.634Z,1.83
2022-10-25T11:18:35.188Z,1.42
2022-10-25T11:21:26.062Z,1.23
2022-10-25T11:23:59.423Z,1.70
2022-10-25T11:26:26.114Z,1.55
2022-10-25T11:28:58.757Z,1.60
2022-10-25T11:31:33.270Z,1.38
2022-10-25T11:34:04.624Z,1.40
2022-10-25T11:37:10.697Z,1.73
2022-10-25T11:39:59.259Z,2.00
2022-10-25T11:42:30.221Z,1.83
2022-10-25T11:45:15.295Z,1.65
2022-10-25T11:47:50.924Z,1.90
2022-10-25T11:50:20.742Z,1.90
2022-10-25T11:53:24.356Z,1.90
2022-10-25T11:56:07.063Z,2.20
2022-10-25T11:58:50.688Z,1.63
2022-10-25T12:01:35.586Z,1.80
2022-10-25T12:04:29.748Z,1.70
2022-10-25T12:07:03.651Z,1.92
2022-10-25T12:09:42.326Z,1.88
2022-10-25T12:12:14.894Z,1.90
2022-10-25T12:14:44.706Z,2.08
2022-10-25T12:17:31.289Z,1.75
2022-10-25T12:19:59.655Z,1.65
2022-10-25T12:22:28.884Z,2.03
2022-10-25T12:25:19.887Z,2.17
2022-10-25T12:27:46.480Z,2.42
2022-10-25T12:30:17.463Z,1.52
2022-10-25T12:32:54.015Z,2.00
2022-10-25T12:35:27.043Z,1.73
2022-10-25T12:37:59.089Z,1.70
2022-10-25T12:40:26.120Z,1.55
2022-10-25T12:43:25.916Z,1.55
2022-10-25T12:46:17.626Z,1.90
2022-10-25T12:48:55.438Z,1.88
2022-10-25T12:51:38.233Z,2.20
2022-10-25T12:54:14.748Z,1.83
2022-10-25T12:56:45.108Z,1.90
2022-10-25T12:59:30.282Z,1.75
2022-10-25T13:04:35.611Z,1.73
2022-10-25T13:07:03.649Z,1.67
2022-10-25T13:09:31.504Z,1.80
2022-10-25T13:11:59.965Z,1.30
2022-10-25T13:14:30.930Z,1.50
2022-10-25T13:17:16.428Z,1.55
2022-10-25T13:19:55.322Z,1.55
2022-10-25T13:22:46.686Z,1.50
2022-10-25T13:25:13.339Z,1.38
2022-10-25T13:27:42.413Z,1.20
2022-10-25T13:30:13.130Z,1.30
2022-10-25T13:32:43.707Z,1.55
2022-10-25T13:35:19.527Z,1.52
2022-10-25T13:37:50.648Z,1.40
2022-10-25T13:40:20.452Z,1.30
2022-10-25T13:42:47.784Z,1.30
2022-10-25T13:45:41.747Z,1.30
2022-10-25T13:48:14.325Z,1.40
2022-10-25T13:50:52.932Z,1.50
2022-10-25T13:53:26.187Z,1.23
2022-10-25T13:56:05.615Z,1.50
2022-10-25T13:58:32.552Z,1.30
2022-10-25T14:01:18.117Z,1.45
2022-10-25T14:03:54.368Z,1.60
2022-10-25T14:06:34.247Z,1.20
2022-10-25T14:09:23.846Z,1.40
2022-10-25T14:12:14.636Z,1.20
2022-10-25T14:14:48.290Z,1.30
2022-10-25T14:17:23.274Z,1.35
2022-10-25T14:19:51.237Z,1.52
2022-10-25T14:22:20.787Z,1.48
2022-10-25T14:24:49.271Z,1.65
2022-10-25T14:27:26.311Z,1.38
2022-10-25T14:29:52.931Z,1.63
2022-10-25T14:32:20.737Z,1.63
2022-10-25T14:34:51.104Z,1.73
2022-10-25T14:37:17.701Z,2.05
2022-10-25T14:39:53.775Z,1.67
2022-10-25T14:42:20.599Z,1.90
2022-10-25T14:44:49.102Z,2.03
2022-10-25T14:47:29.457Z,1.35
2022-10-25T14:49:57.435Z,1.30
2022-10-25T14:52:24.969Z,2.90
2022-10-25T14:54:56.245Z,1.90
2022-10-25T14:57:24.202Z,1.60
2022-10-25T14:59:51.226Z,1.50
2022-10-25T15:02:34.620Z,1.40
2022-10-25T15:05:02.004Z,1.48
2022-10-25T15:07:30.928Z,1.85
2022-10-25T15:09:58.702Z,2.20
2022-10-25T15:12:29.221Z,1.50
2022-10-25T15:14:57.419Z,2.33
2022-10-25T15:17:30.886Z,2.42
2022-10-25T15:20:16.322Z,1.90
2022-10-25T15:22:45.367Z,2.10
2022-10-25T15:25:24.225Z,1.80
2022-10-25T15:27:51.631Z,2.45
2022-10-25T15:30:37.853Z,2.58
2022-10-25T15:33:08.863Z,2.00
2022-10-25T15:35:41.399Z,2.20
2022-10-25T15:38:10.076Z,3.75
2022-10-25T15:40:38.336Z,3.00
2022-10-25T15:43:05.384Z,3.13
2022-10-25T15:45:32.417Z,2.40
2022-10-25T15:47:59.050Z,2.33
2022-10-25T15:50:26.129Z,2.78
2022-10-25T15:52:53.890Z,2.05
2022-10-25T15:55:22.263Z,2.00
2022-10-25T15:57:48.952Z,1.67
2022-10-25T16:00:25.703Z,1.98
2022-10-25T16:02:54.745Z,2.58
2022-10-25T16:05:30.351Z,2.00
2022-10-25T16:07:56.961Z,2.25
2022-10-25T16:10:24.466Z,2.08
2022-10-25T16:13:01.854Z,3.42
2022-10-25T16:15:28.487Z,4.25
2022-10-25T16:17:55.056Z,4.03
2022-10-25T16:20:23.907Z,4.60
2022-10-25T16:23:22.658Z,4.43
2022-10-25T16:25:49.275Z,4.32
2022-10-25T16:28:16.511Z,3.88
2022-10-25T16:30:43.906Z,3.83
2022-10-25T16:33:10.605Z,4.20
2022-10-25T16:35:37.270Z,3.80
2022-10-25T16:38:06.698Z,3.80
2022-10-25T16:40:33.478Z,3.65
2022-10-25T16:43:00.829Z,2.78
2022-10-25T16:45:32.192Z,4.50
2022-10-25T16:51:45.758Z,4.10
2022-10-25T16:54:12.667Z,6.10
2022-10-25T16:56:39.716Z,6.05
2022-10-25T16:59:06.299Z,4.40
2022-10-25T17:01:34.524Z,3.40
2022-10-25T17:04:03.454Z,3.75
2022-10-25T17:06:45.654Z,3.42
2022-10-25T17:09:12.414Z,3.42
2022-10-25T17:11:39.116Z,9.73
2022-10-25T17:14:05.774Z,8.10
2022-10-25T17:16:32.379Z,5.55
2022-10-25T17:18:58.961Z,6.35
2022-10-25T17:21:25.558Z,6.95
2022-10-25T17:23:52.139Z,8.68
2022-10-25T17:26:19.022Z,8.55
2022-10-25T17:28:45.591Z,7.43
2022-10-25T17:31:13.243Z,5.07
2022-10-25T17:33:40.673Z,4.28
2022-10-25T17:36:14.132Z,4.45
2022-10-25T17:38:40.995Z,5.60
2022-10-25T17:41:07.750Z,5.47
2022-10-25T17:43:35.567Z,4.85
2022-10-25T17:46:09.976Z,4.70
2022-10-25T17:48:36.554Z,5.15
2022-10-25T17:51:08.003Z,4.70
2022-10-25T17:53:34.639Z,5.70
2022-10-25T17:56:17.602Z,7.05
2022-10-25T17:58:46.280Z,5.38
2022-10-25T18:01:14.074Z,5.38
2022-10-25T18:03:40.760Z,4.35
2022-10-25T18:06:09.216Z,4.78
2022-10-25T18:08:38.765Z,5.20
2022-10-25T18:11:10.105Z,6.45
2022-10-25T18:13:38.511Z,5.05
2022-10-25T18:18:33.122Z,5.03
2022-10-25T18:21:10.295Z,5.00
2022-10-25T18:23:37.077Z,4.25
2022-10-25T18:26:05.000Z,3.45
2022-10-25T18:28:35.276Z,4.63
2022-10-25T18:31:03.044Z,4.65
2022-10-25T18:33:30.487Z,5.97
2022-10-25T18:35:58.518Z,8.43
2022-10-25T18:38:25.135Z,7.40
2022-10-25T18:40:51.886Z,7.22
2022-10-25T18:43:18.468Z,7.90
2022-10-25T18:45:45.101Z,7.65
2022-10-25T18:48:12.031Z,6.70
2022-10-25T18:50:53.118Z,5.03
2022-10-25T18:53:19.877Z,4.93
2022-10-25T18:55:52.796Z,4.85
2022-10-25T18:58:19.506Z,4.68
2022-10-25T19:00:46.470Z,4.72
2022-10-25T19:03:14.183Z,4.93
2022-10-25T19:05:40.864Z,5.10
2022-10-25T19:08:08.246Z,5.63
2022-10-25T19:10:41.654Z,7.43
2022-10-25T19:13:09.372Z,6.63
2022-10-25T19:15:36.035Z,6.88
2022-10-25T19:18:02.747Z,6.70
2022-10-25T19:20:29.363Z,5.85
2022-10-25T19:22:58.847Z,5.90
2022-10-25T19:25:28.812Z,5.82
2022-10-25T19:27:55.795Z,4.72
2022-10-25T19:30:22.898Z,5.50
2022-10-25T19:32:49.770Z,6.95
2022-10-25T19:35:16.869Z,7.55
2022-10-25T19:37:43.441Z,9.52
2022-10-25T19:40:10.451Z,9.50
2022-10-25T19:42:37.294Z,8.27
2022-10-25T19:45:04.739Z,6.57
2022-10-25T19:47:31.415Z,4.22
2022-10-25T19:49:58.042Z,4.20
2022-10-25T19:52:24.820Z,3.70
2022-10-25T19:54:51.508Z,3.53
2022-10-25T19:57:18.106Z,4.25
2022-10-25T19:59:44.742Z,4.70
2022-10-25T20:02:11.534Z,4.05
2022-10-25T20:04:38.225Z,3.80
2022-10-25T20:07:05.019Z,3.13
2022-10-25T20:09:31.681Z,3.58
2022-10-25T20:11:58.252Z,3.63
2022-10-25T20:14:24.900Z,5.35
2022-10-25T20:16:51.484Z,6.30
2022-10-25T20:19:18.170Z,8.13
2022-10-25T20:21:44.894Z,7.78
2022-10-25T20:24:11.706Z,5.65
2022-10-25T20:26:39.954Z,5.05
2022-10-25T20:29:20.371Z,5.25
2022-10-25T20:31:53.132Z,3.90
2022-10-25T20:34:19.932Z,3.85
2022-10-25T20:36:47.724Z,3.95
2022-10-25T20:39:14.828Z,4.00
2022-10-25T20:41:41.540Z,4.05
2022-10-25T20:44:08.845Z,4.30
2022-10-25T20:46:35.826Z,3.13
2022-10-25T20:49:03.578Z,3.40
2022-10-25T20:51:30.246Z,4.15
2022-10-25T20:53:57.100Z,3.40
2022-10-25T20:56:24.003Z,3.50
2022-10-25T20:58:51.271Z,7.65
2022-10-25T21:01:17.968Z,7.22
2022-10-25T21:03:44.901Z,4.45
2022-10-25T21:06:12.953Z,3.60
2022-10-25T21:08:39.621Z,3.15
2022-10-25T21:11:08.039Z,4.20
2022-10-25T21:13:35.237Z,4.10
2022-10-25T21:16:20.098Z,4.53
2022-10-25T21:18:46.719Z,3.35
2022-10-25T21:21:17.999Z,4.80
2022-10-25T21:23:46.262Z,5.20
2022-10-25T21:26:12.895Z,3.92
2022-10-25T21:28:40.354Z,4.82
2022-10-25T21:31:11.721Z,4.00
2022-10-25T21:33:38.637Z,5.18
2022-10-25T21:36:07.047Z,4.55
2022-10-25T21:38:33.908Z,5.10
2022-10-25T21:41:13.921Z,6.45
2022-10-25T21:43:45.053Z,5.30
2022-10-25T21:46:12.066Z,5.30
2022-10-25T21:48:38.763Z,3.78
2022-10-25T21:51:05.522Z,3.40
2022-10-25T21:53:32.173Z,4.00
2022-10-25T21:56:31.296Z,3.90
2022-10-25T21:58:58.805Z,5.82
2022-10-25T22:01:27.256Z,6.40
2022-10-25T22:03:54.032Z,4.75
2022-10-25T22:06:22.742Z,4.57
2022-10-25T22:08:49.698Z,3.97
2022-10-25T22:11:20.811Z,4.50
2022-10-25T22:13:47.482Z,4.25
2022-10-25T22:16:18.170Z,4.07
2022-10-25T22:18:57.679Z,3.58
2022-10-25T22:21:24.842Z,3.75
2022-10-25T22:23:51.428Z,6.28
2022-10-25T22:26:19.637Z,4.03
2022-10-25T22:28:46.365Z,3.13
2022-10-25T22:31:14.848Z,3.80
2022-10-25T22:33:41.750Z,3.60
2022-10-25T22:36:08.501Z,3.00
2022-10-25T22:38:35.426Z,3.17
2022-10-25T22:41:06.421Z,3.65
2022-10-25T22:43:36.351Z,4.03
2022-10-25T22:46:04.258Z,3.30
2022-10-25T22:48:35.736Z,2.72
2022-10-25T22:51:02.354Z,3.15
2022-10-25T22:53:29.214Z,3.10
2022-10-25T22:56:00.285Z,2.72
2022-10-25T22:58:27.851Z,2.80
2022-10-25T23:01:06.011Z,2.50
2022-10-25T23:03:38.512Z,3.30
2022-10-25T23:06:06.207Z,2.63
2022-10-25T23:08:32.838Z,3.20
2022-10-25T23:11:16.229Z,3.40
2022-10-25T23:13:42.825Z,2.67
2022-10-25T23:16:10.002Z,4.30
2022-10-25T23:18:37.072Z,2.58
2022-10-25T23:21:03.959Z,2.42
2022-10-25T23:23:33.967Z,3.40
2022-10-25T23:26:00.943Z,3.55
2022-10-25T23:28:30.328Z,3.15
2022-10-25T23:30:57.767Z,2.17
2022-10-25T23:33:24.538Z,2.97
2022-10-25T23:35:51.203Z,3.10
2022-10-25T23:38:17.861Z,3.17
2022-10-25T23:40:46.878Z,2.97
2022-10-25T23:43:13.620Z,2.88
2022-10-25T23:45:42.025Z,3.15
2022-10-25T23:48:08.620Z,2.55
2022-10-25T23:50:35.200Z,3.70
2022-10-25T23:53:01.772Z,2.30
2022-10-25T23:55:28.343Z,2.45
2022-10-25T23:57:58.444Z,2.83
